sensor_id;sensor_type;location;lat;lon;timestamp;P1;durP1;ratioP1;P2;durP2;ratioP2
32250;SDS011;41295;48.518;9.206;2022-10-31T00:00:48;17.80;;;4.93;;
32250;SDS011;41295;48.518;9.206;2022-10-31T00:02:51;14.75;;;5.00;;
32250;SDS011;41295;48.518;9.206;2022-10-31T00:04:55;19.55;;;5.38;;
32250;SDS011;41295;48.518;9.206;2022-10-31T00:06:58;11.70;;;3.90;;
32250;SDS011;41295;48.518;9.206;2022-10-31T00:09:01;15.80;;;5.53;;
32250;SDS011;41295;48.518;9.206;2022-10-31T00:11:07;13.95;;;4.55;;
32250;SDS011;41295;48.518;9.206;2022-10-31T00:13:11;12.93;;;4.05;;
32250;SDS011;41295;48.518;9.206;2022-10-31T00:15:14;12.50;;;4.82;;
32250;SDS011;41295;48.518;9.206;2022-10-31T00:17:17;14.18;;;4.45;;
32250;SDS011;41295;48.518;9.206;2022-10-31T00:19:20;11.75;;;5.00;;
32250;SDS011;41295;48.518;9.206;2022-10-31T00:21:24;13.20;;;4.40;;
32250;SDS011;41295;48.518;9.206;2022-10-31T00:23:27;8.70;;;4.38;;
32250;SDS011;41295;48.518;9.206;2022-10-31T00:25:32;13.52;;;5.40;;
32250;SDS011;41295;48.518;9.206;2022-10-31T00:27:36;15.77;;;5.95;;
32250;SDS011;41295;48.518;9.206;2022-10-31T00:29:39;12.23;;;6.35;;
32250;SDS011;41295;48.518;9.206;2022-10-31T00:31:41;16.42;;;7.35;;
32250;SDS011;41295;48.518;9.206;2022-10-31T00:33:44;20.80;;;8.32;;
32250;SDS011;41295;48.518;9.206;2022-10-31T00:35:49;18.88;;;7.88;;
32250;SDS011;41295;48.518;9.206;2022-10-31T00:37:53;23.00;;;8.40;;
32250;SDS011;41295;48.518;9.206;2022-10-31T00:39:55;23.13;;;8.02;;
32250;SDS011;41295;48.518;9.206;2022-10-31T00:41:58;20.02;;;7.47;;
32250;SDS011;41295;48.518;9.206;2022-10-31T00:44:01;22.45;;;7.15;;
32250;SDS011;41295;48.518;9.206;2022-10-31T00:46:03;17.92;;;6.07;;
32250;SDS011;41295;48.518;9.206;2022-10-31T00:48:06;15.35;;;5.70;;
32250;SDS011;41295;48.518;9.206;2022-10-31T00:50:09;13.85;;;5.20;;
32250;SDS011;41295;48.518;9.206;2022-10-31T00:52:11;17.23;;;5.20;;
32250;SDS011;41295;48.518;9.206;2022-10-31T00:54:15;14.77;;;5.60;;
32250;SDS011;41295;48.518;9.206;2022-10-31T00:56:18;12.55;;;5.05;;
32250;SDS011;41295;48.518;9.206;2022-10-31T00:58:20;13.70;;;5.88;;
32250;SDS011;41295;48.518;9.206;2022-10-31T01:00:23;14.75;;;5.57;;
32250;SDS011;41295;48.518;9.206;2022-10-31T01:02:26;16.10;;;5.45;;
32250;SDS011;41295;48.518;9.206;2022-10-31T01:04:29;15.65;;;5.70;;
32250;SDS011;41295;48.518;9.206;2022-10-31T01:06:31;14.43;;;4.80;;
32250;SDS011;41295;48.518;9.206;2022-10-31T01:08:34;13.65;;;5.60;;
32250;SDS011;41295;48.518;9.206;2022-10-31T01:10:38;18.65;;;5.75;;
32250;SDS011;41295;48.518;9.206;2022-10-31T01:12:42;14.65;;;5.78;;
32250;SDS011;41295;48.518;9.206;2022-10-31T01:14:46;10.00;;;4.43;;
32250;SDS011;41295;48.518;9.206;2022-10-31T01:16:49;13.00;;;4.70;;
32250;SDS011;41295;48.518;9.206;2022-10-31T01:18:51;14.50;;;5.35;;
32250;SDS011;41295;48.518;9.206;2022-10-31T01:20:58;17.48;;;6.10;;
32250;SDS011;41295;48.518;9.206;2022-10-31T01:23:01;13.95;;;5.03;;
32250;SDS011;41295;48.518;9.206;2022-10-31T01:25:04;13.18;;;4.80;;
32250;SDS011;41295;48.518;9.206;2022-10-31T01:27:09;12.32;;;5.00;;
32250;SDS011;41295;48.518;9.206;2022-10-31T01:29:12;15.52;;;5.65;;
32250;SDS011;41295;48.518;9.206;2022-10-31T01:31:15;10.55;;;5.03;;
32250;SDS011;41295;48.518;9.206;2022-10-31T01:33:19;11.27;;;4.88;;
32250;SDS011;41295;48.518;9.206;2022-10-31T01:35:21;15.15;;;5.35;;
32250;SDS011;41295;48.518;9.206;2022-10-31T01:37:24;12.25;;;5.30;;
32250;SDS011;41295;48.518;9.206;2022-10-31T01:39:27;14.75;;;5.35;;
32250;SDS011;41295;48.518;9.206;2022-10-31T01:41:30;13.73;;;5.63;;
32250;SDS011;41295;48.518;9.206;2022-10-31T01:43:47;16.17;;;5.63;;
32250;SDS011;41295;48.518;9.206;2022-10-31T01:45:52;18.27;;;5.45;;
32250;SDS011;41295;48.518;9.206;2022-10-31T01:47:56;14.07;;;5.20;;
32250;SDS011;41295;48.518;9.206;2022-10-31T01:50:01;16.30;;;5.53;;
32250;SDS011;41295;48.518;9.206;2022-10-31T01:52:07;10.38;;;4.95;;
32250;SDS011;41295;48.518;9.206;2022-10-31T01:54:15;12.15;;;5.47;;
32250;SDS011;41295;48.518;9.206;2022-10-31T01:56:23;11.35;;;4.72;;
32250;SDS011;41295;48.518;9.206;2022-10-31T01:58:27;11.02;;;5.40;;
32250;SDS011;41295;48.518;9.206;2022-10-31T02:00:34;9.80;;;5.18;;
32250;SDS011;41295;48.518;9.206;2022-10-31T02:02:37;15.70;;;5.70;;
32250;SDS011;41295;48.518;9.206;2022-10-31T02:04:40;14.73;;;6.05;;
32250;SDS011;41295;48.518;9.206;2022-10-31T02:06:45;13.10;;;5.05;;
32250;SDS011;41295;48.518;9.206;2022-10-31T02:08:51;15.80;;;5.07;;
32250;SDS011;41295;48.518;9.206;2022-10-31T02:10:56;12.57;;;5.43;;
32250;SDS011;41295;48.518;9.206;2022-10-31T02:13:01;11.02;;;4.68;;
32250;SDS011;41295;48.518;9.206;2022-10-31T02:15:05;14.45;;;5.00;;
32250;SDS011;41295;48.518;9.206;2022-10-31T02:17:10;10.32;;;5.18;;
32250;SDS011;41295;48.518;9.206;2022-10-31T02:19:13;13.60;;;5.40;;
32250;SDS011;41295;48.518;9.206;2022-10-31T02:21:26;15.75;;;5.10;;
32250;SDS011;41295;48.518;9.206;2022-10-31T02:23:51;16.58;;;4.82;;
32250;SDS011;41295;48.518;9.206;2022-10-31T02:26:28;8.98;;;4.75;;
32250;SDS011;41295;48.518;9.206;2022-10-31T02:28:52;14.20;;;5.70;;
32250;SDS011;41295;48.518;9.206;2022-10-31T02:31:17;13.63;;;4.95;;
32250;SDS011;41295;48.518;9.206;2022-10-31T02:33:29;19.02;;;6.00;;
32250;SDS011;41295;48.518;9.206;2022-10-31T02:35:39;10.98;;;5.10;;
32250;SDS011;41295;48.518;9.206;2022-10-31T02:37:46;14.70;;;5.20;;
32250;SDS011;41295;48.518;9.206;2022-10-31T02:39:53;14.27;;;5.47;;
32250;SDS011;41295;48.518;9.206;2022-10-31T02:42:06;19.50;;;6.50;;
32250;SDS011;41295;48.518;9.206;2022-10-31T02:44:16;13.25;;;6.05;;
32250;SDS011;41295;48.518;9.206;2022-10-31T02:46:28;16.90;;;5.82;;
32250;SDS011;41295;48.518;9.206;2022-10-31T02:48:37;16.58;;;6.07;;
32250;SDS011;41295;48.518;9.206;2022-10-31T02:50:43;17.85;;;6.40;;
32250;SDS011;41295;48.518;9.206;2022-10-31T02:52:52;12.77;;;5.60;;
32250;SDS011;41295;48.518;9.206;2022-10-31T02:54:55;14.63;;;5.97;;
32250;SDS011;41295;48.518;9.206;2022-10-31T02:56:59;14.05;;;5.30;;
32250;SDS011;41295;48.518;9.206;2022-10-31T02:59:06;12.80;;;5.50;;
32250;SDS011;41295;48.518;9.206;2022-10-31T03:01:11;12.32;;;5.45;;
32250;SDS011;41295;48.518;9.206;2022-10-31T03:03:25;13.43;;;4.88;;
32250;SDS011;41295;48.518;9.206;2022-10-31T03:05:38;20.52;;;6.22;;
32250;SDS011;41295;48.518;9.206;2022-10-31T03:07:51;12.57;;;5.53;;
32250;SDS011;41295;48.518;9.206;2022-10-31T03:10:03;16.30;;;5.28;;
32250;SDS011;41295;48.518;9.206;2022-10-31T03:12:13;14.02;;;6.05;;
32250;SDS011;41295;48.518;9.206;2022-10-31T03:14:22;17.55;;;5.45;;
32250;SDS011;41295;48.518;9.206;2022-10-31T03:16:32;13.18;;;5.32;;
32250;SDS011;41295;48.518;9.206;2022-10-31T03:18:44;13.48;;;5.30;;
32250;SDS011;41295;48.518;9.206;2022-10-31T03:20:54;11.65;;;5.43;;
32250;SDS011;41295;48.518;9.206;2022-10-31T03:23:02;13.77;;;5.07;;
32250;SDS011;41295;48.518;9.206;2022-10-31T03:25:07;15.90;;;5.20;;
32250;SDS011;41295;48.518;9.206;2022-10-31T03:27:12;17.83;;;6.03;;
32250;SDS011;41295;48.518;9.206;2022-10-31T03:29:19;15.80;;;5.70;;
32250;SDS011;41295;48.518;9.206;2022-10-31T03:31:26;12.57;;;5.65;;
32250;SDS011;41295;48.518;9.206;2022-10-31T03:33:32;13.93;;;5.07;;
32250;SDS011;41295;48.518;9.206;2022-10-31T03:35:39;11.45;;;4.68;;
32250;SDS011;41295;48.518;9.206;2022-10-31T03:37:47;14.45;;;6.05;;
32250;SDS011;41295;48.518;9.206;2022-10-31T03:39:53;14.15;;;5.50;;
32250;SDS011;41295;48.518;9.206;2022-10-31T03:42:02;13.05;;;5.85;;
32250;SDS011;41295;48.518;9.206;2022-10-31T03:44:08;18.13;;;5.25;;
32250;SDS011;41295;48.518;9.206;2022-10-31T03:46:14;15.80;;;5.57;;
32250;SDS011;41295;48.518;9.206;2022-10-31T03:48:17;11.40;;;5.13;;
32250;SDS011;41295;48.518;9.206;2022-10-31T03:50:23;12.23;;;4.80;;
32250;SDS011;41295;48.518;9.206;2022-10-31T03:52:32;15.57;;;5.32;;
32250;SDS011;41295;48.518;9.206;2022-10-31T03:54:40;10.80;;;5.50;;
32250;SDS011;41295;48.518;9.206;2022-10-31T03:56:47;14.32;;;5.85;;
32250;SDS011;41295;48.518;9.206;2022-10-31T03:58:55;9.15;;;5.05;;
32250;SDS011;41295;48.518;9.206;2022-10-31T04:01:02;19.45;;;6.40;;
32250;SDS011;41295;48.518;9.206;2022-10-31T04:03:09;18.45;;;6.18;;
32250;SDS011;41295;48.518;9.206;2022-10-31T04:05:15;9.70;;;5.07;;
32250;SDS011;41295;48.518;9.206;2022-10-31T04:07:20;14.25;;;5.50;;
32250;SDS011;41295;48.518;9.206;2022-10-31T04:09:27;14.57;;;5.18;;
32250;SDS011;41295;48.518;9.206;2022-10-31T04:11:34;9.02;;;4.75;;
32250;SDS011;41295;48.518;9.206;2022-10-31T04:13:40;17.25;;;5.82;;
32250;SDS011;41295;48.518;9.206;2022-10-31T04:15:46;14.45;;;5.32;;
32250;SDS011;41295;48.518;9.206;2022-10-31T04:17:51;11.73;;;5.53;;
32250;SDS011;41295;48.518;9.206;2022-10-31T04:19:58;15.93;;;5.40;;
32250;SDS011;41295;48.518;9.206;2022-10-31T04:22:02;12.45;;;5.30;;
32250;SDS011;41295;48.518;9.206;2022-10-31T04:24:05;11.60;;;5.78;;
32250;SDS011;41295;48.518;9.206;2022-10-31T04:26:09;13.10;;;5.05;;
32250;SDS011;41295;48.518;9.206;2022-10-31T04:28:13;14.18;;;5.40;;
32250;SDS011;41295;48.518;9.206;2022-10-31T04:30:16;12.45;;;6.03;;
32250;SDS011;41295;48.518;9.206;2022-10-31T04:32:19;14.40;;;6.13;;
32250;SDS011;41295;48.518;9.206;2022-10-31T04:34:21;10.23;;;5.53;;
32250;SDS011;41295;48.518;9.206;2022-10-31T04:36:24;23.05;;;6.50;;
32250;SDS011;41295;48.518;9.206;2022-10-31T04:38:27;19.80;;;7.60;;
32250;SDS011;41295;48.518;9.206;2022-10-31T04:40:29;19.00;;;8.50;;
32250;SDS011;41295;48.518;9.206;2022-10-31T04:42:33;22.00;;;8.93;;
32250;SDS011;41295;48.518;9.206;2022-10-31T04:44:36;21.23;;;7.70;;
32250;SDS011;41295;48.518;9.206;2022-10-31T04:46:38;13.48;;;6.78;;
32250;SDS011;41295;48.518;9.206;2022-10-31T04:48:41;13.73;;;6.03;;
32250;SDS011;41295;48.518;9.206;2022-10-31T04:50:44;16.88;;;7.07;;
32250;SDS011;41295;48.518;9.206;2022-10-31T04:52:46;15.23;;;7.13;;
32250;SDS011;41295;48.518;9.206;2022-10-31T04:54:49;12.63;;;5.95;;
32250;SDS011;41295;48.518;9.206;2022-10-31T04:56:52;14.73;;;6.00;;
32250;SDS011;41295;48.518;9.206;2022-10-31T04:58:56;16.70;;;6.28;;
32250;SDS011;41295;48.518;9.206;2022-10-31T05:00:58;18.70;;;6.22;;
32250;SDS011;41295;48.518;9.206;2022-10-31T05:03:01;14.75;;;5.50;;
32250;SDS011;41295;48.518;9.206;2022-10-31T05:05:04;14.25;;;5.95;;
32250;SDS011;41295;48.518;9.206;2022-10-31T05:07:07;16.65;;;5.78;;
32250;SDS011;41295;48.518;9.206;2022-10-31T05:09:10;15.20;;;5.40;;
32250;SDS011;41295;48.518;9.206;2022-10-31T05:11:12;12.82;;;4.65;;
32250;SDS011;41295;48.518;9.206;2022-10-31T05:13:15;14.85;;;5.63;;
32250;SDS011;41295;48.518;9.206;2022-10-31T05:15:20;23.00;;;5.70;;
32250;SDS011;41295;48.518;9.206;2022-10-31T05:17:24;11.68;;;5.03;;
32250;SDS011;41295;48.518;9.206;2022-10-31T05:19:27;10.77;;;4.72;;
32250;SDS011;41295;48.518;9.206;2022-10-31T05:21:29;14.50;;;4.60;;
32250;SDS011;41295;48.518;9.206;2022-10-31T05:23:32;8.52;;;4.93;;
32250;SDS011;41295;48.518;9.206;2022-10-31T05:25:34;16.30;;;4.90;;
32250;SDS011;41295;48.518;9.206;2022-10-31T05:27:38;16.00;;;5.05;;
32250;SDS011;41295;48.518;9.206;2022-10-31T05:29:41;10.45;;;4.97;;
32250;SDS011;41295;48.518;9.206;2022-10-31T05:31:45;17.42;;;5.15;;
32250;SDS011;41295;48.518;9.206;2022-10-31T05:33:48;14.88;;;5.15;;
32250;SDS011;41295;48.518;9.206;2022-10-31T05:35:50;12.68;;;5.55;;
32250;SDS011;41295;48.518;9.206;2022-10-31T05:37:53;16.15;;;4.85;;
32250;SDS011;41295;48.518;9.206;2022-10-31T05:39:56;12.68;;;4.93;;
32250;SDS011;41295;48.518;9.206;2022-10-31T05:42:03;9.60;;;5.18;;
32250;SDS011;41295;48.518;9.206;2022-10-31T05:44:06;14.05;;;5.88;;
32250;SDS011;41295;48.518;9.206;2022-10-31T05:46:09;12.00;;;5.55;;
32250;SDS011;41295;48.518;9.206;2022-10-31T05:48:12;12.15;;;5.15;;
32250;SDS011;41295;48.518;9.206;2022-10-31T05:50:15;16.85;;;6.55;;
32250;SDS011;41295;48.518;9.206;2022-10-31T05:52:18;10.68;;;5.20;;
32250;SDS011;41295;48.518;9.206;2022-10-31T05:54:21;13.15;;;5.28;;
32250;SDS011;41295;48.518;9.206;2022-10-31T05:56:23;12.40;;;6.05;;
32250;SDS011;41295;48.518;9.206;2022-10-31T05:58:26;15.20;;;5.85;;
32250;SDS011;41295;48.518;9.206;2022-10-31T06:00:30;18.10;;;8.40;;
32250;SDS011;41295;48.518;9.206;2022-10-31T06:02:33;20.70;;;10.45;;
32250;SDS011;41295;48.518;9.206;2022-10-31T06:04:37;18.45;;;9.73;;
32250;SDS011;41295;48.518;9.206;2022-10-31T06:06:39;20.85;;;10.60;;
32250;SDS011;41295;48.518;9.206;2022-10-31T06:08:42;20.50;;;9.27;;
32250;SDS011;41295;48.518;9.206;2022-10-31T06:10:45;17.45;;;8.70;;
32250;SDS011;41295;48.518;9.206;2022-10-31T06:12:48;13.60;;;7.00;;
32250;SDS011;41295;48.518;9.206;2022-10-31T06:14:51;17.67;;;6.97;;
32250;SDS011;41295;48.518;9.206;2022-10-31T06:16:53;10.95;;;6.32;;
32250;SDS011;41295;48.518;9.206;2022-10-31T06:18:56;16.45;;;7.03;;
32250;SDS011;41295;48.518;9.206;2022-10-31T06:21:00;12.70;;;6.32;;
32250;SDS011;41295;48.518;9.206;2022-10-31T06:23:02;15.10;;;6.90;;
32250;SDS011;41295;48.518;9.206;2022-10-31T06:25:06;18.55;;;6.68;;
32250;SDS011;41295;48.518;9.206;2022-10-31T06:27:09;11.60;;;5.55;;
32250;SDS011;41295;48.518;9.206;2022-10-31T06:29:11;15.13;;;5.72;;
32250;SDS011;41295;48.518;9.206;2022-10-31T06:31:14;12.80;;;6.45;;
32250;SDS011;41295;48.518;9.206;2022-10-31T06:33:17;12.98;;;6.20;;
32250;SDS011;41295;48.518;9.206;2022-10-31T06:35:19;15.13;;;6.30;;
32250;SDS011;41295;48.518;9.206;2022-10-31T06:37:23;15.98;;;6.25;;
32250;SDS011;41295;48.518;9.206;2022-10-31T06:39:26;15.00;;;5.45;;
32250;SDS011;41295;48.518;9.206;2022-10-31T06:41:28;14.07;;;6.22;;
32250;SDS011;41295;48.518;9.206;2022-10-31T06:43:31;22.63;;;5.47;;
32250;SDS011;41295;48.518;9.206;2022-10-31T06:45:34;9.07;;;5.43;;
32250;SDS011;41295;48.518;9.206;2022-10-31T06:47:36;14.50;;;6.18;;
32250;SDS011;41295;48.518;9.206;2022-10-31T06:49:59;12.57;;;5.47;;
32250;SDS011;41295;48.518;9.206;2022-10-31T06:52:02;10.00;;;5.90;;
32250;SDS011;41295;48.518;9.206;2022-10-31T06:54:06;11.98;;;4.55;;
32250;SDS011;41295;48.518;9.206;2022-10-31T06:56:09;10.70;;;5.82;;
32250;SDS011;41295;48.518;9.206;2022-10-31T06:58:11;11.73;;;5.80;;
32250;SDS011;41295;48.518;9.206;2022-10-31T07:00:14;13.02;;;5.22;;
32250;SDS011;41295;48.518;9.206;2022-10-31T07:02:17;12.93;;;5.15;;
32250;SDS011;41295;48.518;9.206;2022-10-31T07:04:20;16.65;;;5.75;;
32250;SDS011;41295;48.518;9.206;2022-10-31T07:06:23;16.63;;;5.90;;
32250;SDS011;41295;48.518;9.206;2022-10-31T07:08:26;13.15;;;5.78;;
32250;SDS011;41295;48.518;9.206;2022-10-31T07:10:31;13.57;;;5.60;;
32250;SDS011;41295;48.518;9.206;2022-10-31T07:14:43;17.95;;;5.78;;
32250;SDS011;41295;48.518;9.206;2022-10-31T07:16:47;13.38;;;5.35;;
32250;SDS011;41295;48.518;9.206;2022-10-31T07:18:51;12.25;;;6.00;;
32250;SDS011;41295;48.518;9.206;2022-10-31T07:20:54;11.25;;;5.55;;
32250;SDS011;41295;48.518;9.206;2022-10-31T07:22:57;10.95;;;5.75;;
32250;SDS011;41295;48.518;9.206;2022-10-31T07:25:00;14.13;;;6.00;;
32250;SDS011;41295;48.518;9.206;2022-10-31T07:27:04;15.65;;;5.78;;
32250;SDS011;41295;48.518;9.206;2022-10-31T07:29:07;11.02;;;5.68;;
32250;SDS011;41295;48.518;9.206;2022-10-31T07:31:09;12.38;;;5.63;;
32250;SDS011;41295;48.518;9.206;2022-10-31T07:33:12;17.02;;;5.18;;
32250;SDS011;41295;48.518;9.206;2022-10-31T07:35:16;14.80;;;4.95;;
32250;SDS011;41295;48.518;9.206;2022-10-31T07:37:20;14.52;;;6.72;;
32250;SDS011;41295;48.518;9.206;2022-10-31T07:39:22;12.73;;;5.13;;
32250;SDS011;41295;48.518;9.206;2022-10-31T07:41:25;15.30;;;6.00;;
32250;SDS011;41295;48.518;9.206;2022-10-31T07:43:29;17.40;;;5.95;;
32250;SDS011;41295;48.518;9.206;2022-10-31T07:45:31;16.08;;;6.03;;
32250;SDS011;41295;48.518;9.206;2022-10-31T07:47:37;12.45;;;5.80;;
32250;SDS011;41295;48.518;9.206;2022-10-31T07:49:40;15.13;;;5.38;;
32250;SDS011;41295;48.518;9.206;2022-10-31T07:51:43;16.90;;;5.68;;
32250;SDS011;41295;48.518;9.206;2022-10-31T07:53:46;10.45;;;5.38;;
32250;SDS011;41295;48.518;9.206;2022-10-31T07:55:49;13.27;;;4.95;;
32250;SDS011;41295;48.518;9.206;2022-10-31T07:57:56;15.18;;;5.30;;
32250;SDS011;41295;48.518;9.206;2022-10-31T08:00:02;14.80;;;5.22;;
32250;SDS011;41295;48.518;9.206;2022-10-31T08:02:05;16.33;;;6.25;;
32250;SDS011;41295;48.518;9.206;2022-10-31T08:04:08;17.98;;;5.38;;
32250;SDS011;41295;48.518;9.206;2022-10-31T08:06:10;17.50;;;5.90;;
32250;SDS011;41295;48.518;9.206;2022-10-31T08:08:13;9.13;;;4.88;;
32250;SDS011;41295;48.518;9.206;2022-10-31T08:10:16;12.18;;;4.45;;
32250;SDS011;41295;48.518;9.206;2022-10-31T08:12:19;10.32;;;4.97;;
32250;SDS011;41295;48.518;9.206;2022-10-31T08:14:22;15.73;;;5.38;;
32250;SDS011;41295;48.518;9.206;2022-10-31T08:16:26;20.38;;;5.82;;
32250;SDS011;41295;48.518;9.206;2022-10-31T08:18:28;12.18;;;4.63;;
32250;SDS011;41295;48.518;9.206;2022-10-31T08:20:32;10.70;;;4.85;;
32250;SDS011;41295;48.518;9.206;2022-10-31T08:22:35;12.90;;;5.72;;
32250;SDS011;41295;48.518;9.206;2022-10-31T08:24:43;12.10;;;5.32;;
32250;SDS011;41295;48.518;9.206;2022-10-31T08:26:46;12.73;;;5.38;;
32250;SDS011;41295;48.518;9.206;2022-10-31T08:28:49;11.38;;;5.50;;
32250;SDS011;41295;48.518;9.206;2022-10-31T08:30:52;15.57;;;5.78;;
32250;SDS011;41295;48.518;9.206;2022-10-31T08:33:00;14.93;;;5.68;;
32250;SDS011;41295;48.518;9.206;2022-10-31T08:35:04;16.20;;;5.43;;
32250;SDS011;41295;48.518;9.206;2022-10-31T08:37:07;13.10;;;5.75;;
32250;SDS011;41295;48.518;9.206;2022-10-31T08:39:09;11.25;;;5.15;;
32250;SDS011;41295;48.518;9.206;2022-10-31T08:41:12;15.60;;;5.63;;
32250;SDS011;41295;48.518;9.206;2022-10-31T08:43:15;9.98;;;4.88;;
32250;SDS011;41295;48.518;9.206;2022-10-31T08:45:19;15.57;;;5.57;;
32250;SDS011;41295;48.518;9.206;2022-10-31T08:47:21;14.73;;;5.88;;
32250;SDS011;41295;48.518;9.206;2022-10-31T08:49:25;11.18;;;5.38;;
32250;SDS011;41295;48.518;9.206;2022-10-31T08:51:28;10.40;;;5.88;;
32250;SDS011;41295;48.518;9.206;2022-10-31T08:53:30;12.85;;;5.82;;
32250;SDS011;41295;48.518;9.206;2022-10-31T08:55:34;13.90;;;5.40;;
32250;SDS011;41295;48.518;9.206;2022-10-31T08:57:37;12.90;;;6.13;;
32250;SDS011;41295;48.518;9.206;2022-10-31T08:59:40;14.68;;;5.75;;
32250;SDS011;41295;48.518;9.206;2022-10-31T09:01:43;9.63;;;5.53;;
32250;SDS011;41295;48.518;9.206;2022-10-31T09:03:47;19.98;;;5.35;;
32250;SDS011;41295;48.518;9.206;2022-10-31T09:05:54;20.27;;;5.43;;
32250;SDS011;41295;48.518;9.206;2022-10-31T09:07:58;17.67;;;6.13;;
32250;SDS011;41295;48.518;9.206;2022-10-31T09:10:02;16.48;;;5.82;;
32250;SDS011;41295;48.518;9.206;2022-10-31T09:12:05;16.80;;;6.93;;
32250;SDS011;41295;48.518;9.206;2022-10-31T09:14:08;21.80;;;6.55;;
32250;SDS011;41295;48.518;9.206;2022-10-31T09:16:10;16.55;;;5.47;;
32250;SDS011;41295;48.518;9.206;2022-10-31T09:18:15;19.65;;;6.30;;
32250;SDS011;41295;48.518;9.206;2022-10-31T09:20:19;11.23;;;5.55;;
32250;SDS011;41295;48.518;9.206;2022-10-31T09:22:23;23.75;;;6.90;;
32250;SDS011;41295;48.518;9.206;2022-10-31T09:24:25;16.48;;;5.75;;
32250;SDS011;41295;48.518;9.206;2022-10-31T09:26:28;18.63;;;5.78;;
32250;SDS011;41295;48.518;9.206;2022-10-31T09:28:31;14.60;;;5.20;;
32250;SDS011;41295;48.518;9.206;2022-10-31T09:30:34;20.33;;;5.43;;
32250;SDS011;41295;48.518;9.206;2022-10-31T09:32:37;13.65;;;5.22;;
32250;SDS011;41295;48.518;9.206;2022-10-31T09:34:40;15.20;;;6.38;;
32250;SDS011;41295;48.518;9.206;2022-10-31T09:36:42;17.52;;;5.88;;
32250;SDS011;41295;48.518;9.206;2022-10-31T09:38:48;14.85;;;5.85;;
32250;SDS011;41295;48.518;9.206;2022-10-31T09:40:52;13.43;;;6.53;;
32250;SDS011;41295;48.518;9.206;2022-10-31T09:43:02;13.85;;;5.80;;
32250;SDS011;41295;48.518;9.206;2022-10-31T09:45:16;18.33;;;5.70;;
32250;SDS011;41295;48.518;9.206;2022-10-31T09:47:24;22.77;;;6.90;;
32250;SDS011;41295;48.518;9.206;2022-10-31T09:49:38;13.05;;;6.38;;
32250;SDS011;41295;48.518;9.206;2022-10-31T09:51:54;13.43;;;6.20;;
32250;SDS011;41295;48.518;9.206;2022-10-31T09:54:14;15.70;;;6.10;;
32250;SDS011;41295;48.518;9.206;2022-10-31T09:56:21;18.42;;;6.38;;
32250;SDS011;41295;48.518;9.206;2022-10-31T09:58:25;16.25;;;6.07;;
32250;SDS011;41295;48.518;9.206;2022-10-31T10:00:33;11.05;;;5.05;;
32250;SDS011;41295;48.518;9.206;2022-10-31T10:02:37;16.42;;;5.43;;
32250;SDS011;41295;48.518;9.206;2022-10-31T10:04:48;10.80;;;4.63;;
32250;SDS011;41295;48.518;9.206;2022-10-31T10:06:56;11.02;;;4.55;;
32250;SDS011;41295;48.518;9.206;2022-10-31T10:09:01;15.45;;;5.05;;
32250;SDS011;41295;48.518;9.206;2022-10-31T10:11:13;16.48;;;5.05;;
32250;SDS011;41295;48.518;9.206;2022-10-31T10:13:30;15.30;;;5.57;;
32250;SDS011;41295;48.518;9.206;2022-10-31T10:15:47;20.27;;;5.50;;
32250;SDS011;41295;48.518;9.206;2022-10-31T10:18:03;18.33;;;4.65;;
32250;SDS011;41295;48.518;9.206;2022-10-31T10:20:17;14.30;;;5.40;;
32250;SDS011;41295;48.518;9.206;2022-10-31T10:22:29;19.33;;;5.50;;
32250;SDS011;41295;48.518;9.206;2022-10-31T10:24:44;14.95;;;6.85;;
32250;SDS011;41295;48.518;9.206;2022-10-31T10:26:59;26.17;;;7.00;;
32250;SDS011;41295;48.518;9.206;2022-10-31T10:29:17;13.52;;;6.55;;
32250;SDS011;41295;48.518;9.206;2022-10-31T10:31:36;15.63;;;6.80;;
32250;SDS011;41295;48.518;9.206;2022-10-31T10:33:43;18.52;;;6.55;;
32250;SDS011;41295;48.518;9.206;2022-10-31T10:35:55;13.57;;;6.30;;
32250;SDS011;41295;48.518;9.206;2022-10-31T10:38:09;16.60;;;6.15;;
32250;SDS011;41295;48.518;9.206;2022-10-31T10:40:18;18.83;;;6.05;;
32250;SDS011;41295;48.518;9.206;2022-10-31T10:42:25;18.30;;;7.07;;
32250;SDS011;41295;48.518;9.206;2022-10-31T10:44:47;16.15;;;6.18;;
32250;SDS011;41295;48.518;9.206;2022-10-31T10:47:09;16.73;;;6.32;;
32250;SDS011;41295;48.518;9.206;2022-10-31T10:49:31;12.75;;;6.03;;
32250;SDS011;41295;48.518;9.206;2022-10-31T10:51:40;13.23;;;6.20;;
32250;SDS011;41295;48.518;9.206;2022-10-31T10:54:04;26.40;;;7.22;;
32250;SDS011;41295;48.518;9.206;2022-10-31T10:56:16;18.60;;;5.97;;
32250;SDS011;41295;48.518;9.206;2022-10-31T10:58:25;17.05;;;6.13;;
32250;SDS011;41295;48.518;9.206;2022-10-31T11:00:29;17.23;;;6.30;;
32250;SDS011;41295;48.518;9.206;2022-10-31T11:02:33;18.70;;;6.22;;
32250;SDS011;41295;48.518;9.206;2022-10-31T11:04:38;16.60;;;6.50;;
32250;SDS011;41295;48.518;9.206;2022-10-31T11:06:42;17.27;;;6.28;;
32250;SDS011;41295;48.518;9.206;2022-10-31T11:08:47;15.55;;;5.80;;
32250;SDS011;41295;48.518;9.206;2022-10-31T11:10:56;17.50;;;6.95;;
32250;SDS011;41295;48.518;9.206;2022-10-31T11:13:03;22.13;;;6.00;;
32250;SDS011;41295;48.518;9.206;2022-10-31T11:15:17;19.73;;;6.28;;
32250;SDS011;41295;48.518;9.206;2022-10-31T11:17:25;21.40;;;5.97;;
32250;SDS011;41295;48.518;9.206;2022-10-31T11:19:32;24.85;;;6.30;;
32250;SDS011;41295;48.518;9.206;2022-10-31T11:21:34;18.73;;;7.15;;
32250;SDS011;41295;48.518;9.206;2022-10-31T11:23:37;17.60;;;7.30;;
32250;SDS011;41295;48.518;9.206;2022-10-31T11:25:39;16.48;;;6.53;;
32250;SDS011;41295;48.518;9.206;2022-10-31T11:27:58;11.30;;;5.28;;
32250;SDS011;41295;48.518;9.206;2022-10-31T11:30:05;17.50;;;5.43;;
32250;SDS011;41295;48.518;9.206;2022-10-31T11:32:15;14.70;;;5.43;;
32250;SDS011;41295;48.518;9.206;2022-10-31T11:34:25;14.63;;;6.22;;
32250;SDS011;41295;48.518;9.206;2022-10-31T11:36:32;17.00;;;5.85;;
32250;SDS011;41295;48.518;9.206;2022-10-31T11:38:39;13.68;;;5.50;;
32250;SDS011;41295;48.518;9.206;2022-10-31T11:40:51;16.40;;;6.05;;
32250;SDS011;41295;48.518;9.206;2022-10-31T11:44:59;20.83;;;6.53;;
32250;SDS011;41295;48.518;9.206;2022-10-31T11:47:09;16.17;;;7.45;;
32250;SDS011;41295;48.518;9.206;2022-10-31T11:49:18;19.40;;;6.95;;
32250;SDS011;41295;48.518;9.206;2022-10-31T11:51:26;17.45;;;6.03;;
32250;SDS011;41295;48.518;9.206;2022-10-31T11:53:32;15.63;;;6.65;;
32250;SDS011;41295;48.518;9.206;2022-10-31T11:55:36;17.85;;;6.28;;
32250;SDS011;41295;48.518;9.206;2022-10-31T11:57:42;17.67;;;6.40;;
32250;SDS011;41295;48.518;9.206;2022-10-31T11:59:50;12.50;;;5.38;;
32250;SDS011;41295;48.518;9.206;2022-10-31T12:01:54;18.67;;;6.40;;
32250;SDS011;41295;48.518;9.206;2022-10-31T12:04:00;10.48;;;5.28;;
32250;SDS011;41295;48.518;9.206;2022-10-31T12:06:10;19.15;;;6.28;;
32250;SDS011;41295;48.518;9.206;2022-10-31T12:08:18;10.73;;;4.60;;
32250;SDS011;41295;48.518;9.206;2022-10-31T12:10:23;16.35;;;5.05;;
32250;SDS011;41295;48.518;9.206;2022-10-31T12:12:36;13.95;;;5.47;;
32250;SDS011;41295;48.518;9.206;2022-10-31T12:14:48;16.20;;;5.00;;
32250;SDS011;41295;48.518;9.206;2022-10-31T12:16:59;13.68;;;4.53;;
32250;SDS011;41295;48.518;9.206;2022-10-31T12:19:11;13.98;;;5.28;;
32250;SDS011;41295;48.518;9.206;2022-10-31T12:21:26;15.55;;;4.95;;
32250;SDS011;41295;48.518;9.206;2022-10-31T12:23:44;12.13;;;4.80;;
32250;SDS011;41295;48.518;9.206;2022-10-31T12:25:58;15.25;;;4.97;;
32250;SDS011;41295;48.518;9.206;2022-10-31T12:28:22;11.70;;;5.22;;
32250;SDS011;41295;48.518;9.206;2022-10-31T12:30:51;15.48;;;4.78;;
32250;SDS011;41295;48.518;9.206;2022-10-31T12:33:07;11.73;;;5.07;;